createdAt,value
2018-07-07T06:39:58.977Z,34.5
2018-07-07T06:40:49.046Z,34.6
2018-07-07T06:41:39.084Z,34.8
2018-07-07T06:42:28.883Z,34.9
2018-07-07T06:43:19.221Z,35.1
2018-07-07T06:44:09.278Z,35.2
2018-07-07T06:44:59.070Z,35.3
2018-07-07T06:45:49.135Z,35.5
2018-07-07T06:46:39.473Z,35.6
2018-07-07T06:47:29.245Z,35.8
2018-07-07T06:48:19.338Z,35.9
2018-07-07T06:49:09.392Z,36.1
2018-07-07T06:49:59.733Z,36.2
2018-07-07T06:50:49.517Z,36.4
2018-07-07T06:51:39.885Z,36.5
2018-07-07T06:52:29.648Z,36.7
2018-07-07T06:53:19.995Z,36.8
2018-07-07T06:54:09.802Z,37
2018-07-07T06:55:00.127Z,37.2
2018-07-07T06:55:50.177Z,37.4
2018-07-07T06:56:40.261Z,37.7
2018-07-07T06:57:30.330Z,37.9
2018-07-07T06:58:20.382Z,38.2
2018-07-07T06:59:10.464Z,38.4
2018-07-07T07:00:01.066Z,38.8
2018-07-07T07:00:50.585Z,39.1
2018-07-07T07:01:40.659Z,39.5
2018-07-07T07:02:30.702Z,39.8
2018-07-07T07:03:20.898Z,40.1
2018-07-07T07:04:10.297Z,40.4
2018-07-07T07:05:00.919Z,40.5
2018-07-07T07:05:50.687Z,40.7
2018-07-07T07:06:41.051Z,40.8
2018-07-07T07:07:31.111Z,40.9
2018-07-07T07:08:20.891Z,40.9
2018-07-07T07:09:11.244Z,41.1
2018-07-07T07:10:01.027Z,41.2
2018-07-07T07:10:51.086Z,41.3
2018-07-07T07:11:41.139Z,41.4
2018-07-07T07:12:31.485Z,41.6
2018-07-07T07:13:21.545Z,41.8
2018-07-07T07:14:11.605Z,42
2018-07-07T07:15:01.431Z,42.3
2018-07-07T07:15:51.461Z,42.5
2018-07-07T07:16:41.827Z,42.9
2018-07-07T07:17:31.883Z,43.3
2018-07-07T07:18:21.938Z,43.8
2018-07-07T07:19:11.741Z,44.1
2018-07-07T07:20:02.322Z,44.4
2018-07-07T07:20:52.135Z,44.7
2018-07-07T07:21:42.204Z,44.9
2018-07-07T07:22:32.255Z,45.2
2018-07-07T07:23:22.349Z,45.4
2018-07-07T07:24:12.111Z,45.7
2018-07-07T07:25:02.202Z,46
2018-07-07T07:25:52.626Z,46.3
2018-07-07T07:26:42.344Z,46.6
2018-07-07T07:27:32.402Z,46.9
2018-07-07T07:28:22.726Z,47.1
2018-07-07T07:29:12.789Z,47.4
2018-07-07T07:30:02.871Z,47.6
2018-07-07T07:30:52.651Z,47.9
2018-07-07T07:31:43.022Z,48.3
2018-07-07T07:32:33.046Z,49.4
2018-07-07T07:33:22.883Z,49.5
2018-07-07T07:34:12.909Z,48.4
2018-07-07T07:35:03.263Z,45.9
2018-07-07T07:35:53.311Z,42.8
2018-07-07T07:36:43.018Z,40.9
2018-07-07T07:37:33.177Z,39.9
2018-07-07T07:38:23.521Z,39.4
2018-07-07T07:39:13.601Z,39.1
2018-07-07T07:40:03.658Z,38.9
2018-07-07T07:40:53.431Z,39
2018-07-07T07:41:43.501Z,39.3
2018-07-07T07:42:33.826Z,39.8
2018-07-07T07:43:23.932Z,40.6
2018-07-07T07:44:13.989Z,41.4
2018-07-07T07:45:04.051Z,42
2018-07-07T07:45:53.839Z,42.5
2018-07-07T07:46:44.185Z,42.9
2018-07-07T07:47:34.235Z,43.3
2018-07-07T07:48:24.316Z,43.7
2018-07-07T07:49:14.354Z,44.2
2018-07-07T07:50:04.437Z,44.9
2018-07-07T07:50:54.205Z,45.8
2018-07-07T07:51:44.554Z,46.8
2018-07-07T07:52:34.618Z,47.7
2018-07-07T07:53:24.417Z,49.3
2018-07-07T07:54:14.827Z,49.6
2018-07-07T07:55:04.820Z,48.6
2018-07-07T07:55:54.872Z,47.1
2018-07-07T07:56:44.939Z,45.4
2018-07-07T07:57:34.739Z,43.9
2018-07-07T07:58:24.786Z,43.1
2018-07-07T07:59:14.860Z,42.6
2018-07-07T08:00:05.205Z,42.4
2018-07-07T08:00:55.012Z,42.3
2018-07-07T08:01:45.341Z,42.4
2018-07-07T08:02:35.406Z,42.7
2018-07-07T08:03:25.480Z,43.3
2018-07-07T08:04:15.561Z,43.9
2018-07-07T08:05:05.329Z,44.6
2018-07-07T08:05:55.401Z,45.2
2018-07-07T08:06:45.483Z,45.6
2018-07-07T08:07:35.829Z,46.1
2018-07-07T08:08:25.877Z,46.6
2018-07-07T08:09:15.936Z,47
2018-07-07T08:10:06.011Z,47.4
2018-07-07T08:10:56.090Z,48.3
2018-07-07T08:11:46.132Z,49.6
2018-07-07T08:12:36.210Z,49.6
2018-07-07T08:13:26.034Z,49.2
2018-07-07T08:14:16.799Z,48.1
2018-07-07T08:15:06.414Z,46.7
2018-07-07T08:15:56.196Z,45.5
2018-07-07T08:16:46.262Z,45.1
2018-07-07T08:17:36.599Z,44.9
2018-07-07T08:18:26.656Z,44.7
2018-07-07T08:19:16.720Z,44.8
2018-07-07T08:20:06.794Z,45
2018-07-07T08:20:56.866Z,45.5
2018-07-07T08:21:46.966Z,46
2018-07-07T08:22:36.882Z,46.4
2018-07-07T08:23:26.502Z,47
2018-07-07T08:24:16.899Z,48.4
2018-07-07T08:25:07.221Z,48.8
2018-07-07T08:25:57.009Z,48.8
2018-07-07T08:26:47.309Z,48.1
2018-07-07T08:27:37.134Z,47.1
2018-07-07T08:28:27.664Z,46.1
2018-07-07T08:29:17.511Z,45.8
2018-07-07T08:30:07.595Z,46.1
2018-07-07T08:30:57.634Z,46.5
2018-07-07T08:31:47.703Z,46.9
2018-07-07T08:32:36.946Z,46.9
2018-07-07T08:33:27.853Z,46.8
2018-07-07T08:34:17.915Z,46.6
2018-07-07T08:35:07.710Z,46.3
2018-07-07T08:35:57.755Z,46.2
2018-07-07T08:36:48.161Z,46.2
2018-07-07T08:37:37.890Z,46.2
2018-07-07T08:38:28.238Z,46.3
2018-07-07T08:39:18.322Z,46.3
2018-07-07T08:40:08.368Z,46.1
2018-07-07T08:40:58.428Z,46
2018-07-07T08:41:48.714Z,45.9
2018-07-07T08:42:38.579Z,45.8
2018-07-07T08:43:28.638Z,45.8
2018-07-07T08:44:18.717Z,45.8
2018-07-07T08:45:08.768Z,45.7
2018-07-07T08:45:58.825Z,45.6
2018-07-07T08:46:48.627Z,45.5
2018-07-07T08:47:38.691Z,45.4
2018-07-07T08:48:28.760Z,45.4
2018-07-07T08:49:19.351Z,45.5
2018-07-07T08:50:08.897Z,45.6
2018-07-07T08:50:59.221Z,45.6
2018-07-07T08:51:49.020Z,45.7
2018-07-07T08:52:39.361Z,45.9
2018-07-07T08:53:29.409Z,46.1
2018-07-07T08:54:19.475Z,46.4
2018-07-07T08:55:09.548Z,46.7
2018-07-07T08:55:59.604Z,46.9
2018-07-07T08:56:49.753Z,47.1
2018-07-07T08:57:39.748Z,47.3
2018-07-07T08:58:29.260Z,47.4
2018-07-07T08:59:19.909Z,47.5
2018-07-07T09:00:09.375Z,47.6
2018-07-07T09:00:59.748Z,47.6
2018-07-07T09:01:50.067Z,47.6
2018-07-07T09:02:39.863Z,47.7
2018-07-07T09:03:30.215Z,47.7
2018-07-07T09:04:20.266Z,47.7
2018-07-07T09:05:10.355Z,47.6
2018-07-07T09:06:00.125Z,47.3
2018-07-07T09:06:50.485Z,47
2018-07-07T09:07:40.765Z,46.8
2018-07-07T09:08:30.600Z,46.5
2018-07-07T09:09:20.377Z,46.3
2018-07-07T09:10:10.741Z,45.9
2018-07-07T09:11:00.802Z,45.7
2018-07-07T09:11:50.862Z,45.4
2018-07-07T09:12:40.948Z,45.1
2018-07-07T09:13:31.016Z,44.8
2018-07-07T09:14:20.747Z,44.5
2018-07-07T09:15:11.169Z,44.2
2018-07-07T09:16:00.652Z,43.7
2018-07-07T09:16:51.262Z,43.3
2018-07-07T09:17:41.050Z,42.9
2018-07-07T09:18:31.427Z,42.6
2018-07-07T09:19:21.573Z,42.4
2018-07-07T09:20:11.363Z,42.2
2018-07-07T09:21:01.655Z,42
2018-07-07T09:21:51.660Z,41.8
2018-07-07T09:22:41.755Z,41.6
2018-07-07T09:23:31.805Z,41.3
2018-07-07T09:24:21.576Z,40.9
2018-07-07T09:25:11.938Z,40.6
2018-07-07T09:26:01.981Z,40.2
2018-07-07T09:26:51.791Z,39.9
2018-07-07T09:27:41.827Z,39.6
2018-07-07T09:28:31.914Z,39.3
2018-07-07T09:29:21.970Z,38.9
2018-07-07T09:30:12.041Z,38.6
2018-07-07T09:31:02.255Z,38.2
2018-07-07T09:31:52.441Z,37.8
2018-07-07T09:32:42.556Z,37.4
2018-07-07T09:33:32.614Z,37
2018-07-07T09:34:22.384Z,36.7
2018-07-07T09:35:12.722Z,36.4
2018-07-07T09:36:02.772Z,36.1
2018-07-07T09:36:52.819Z,35.8
2018-07-07T09:37:42.889Z,35.4
2018-07-07T09:38:32.416Z,35.1
2018-07-07T09:39:23.063Z,34.9
2018-07-07T09:40:13.087Z,34.6
2018-07-07T09:41:03.197Z,34.3
2018-07-07T09:41:53.270Z,34.1
2018-07-07T09:42:43.293Z,33.8
2018-07-07T09:43:33.078Z,33.6
2018-07-07T09:44:23.423Z,33.3
2018-07-07T09:45:13.481Z,33.1
2018-07-07T09:46:03.298Z,32.9
2018-07-07T09:46:53.613Z,32.7
2018-07-07T09:47:43.434Z,32.4
2018-07-07T09:48:33.741Z,32.3
2018-07-07T09:49:23.815Z,32.1
2018-07-07T09:50:13.879Z,31.9
2018-07-07T09:51:03.967Z,31.7
2018-07-07T09:51:54.002Z,31.5
2018-07-07T09:52:44.091Z,31.4
2018-07-07T09:53:34.252Z,31.2
2018-07-07T09:54:24.210Z,31.1
2018-07-07T09:55:14.010Z,30.9
2018-07-07T09:56:03.870Z,30.8
2018-07-07T09:56:54.411Z,30.6
2018-07-07T09:57:44.492Z,30.6
2018-07-07T09:58:34.540Z,30.4
2018-07-07T09:59:24.596Z,30.3
2018-07-07T10:00:14.714Z,30.2
2018-07-07T10:01:04.751Z,30.1
2018-07-07T10:01:55.026Z,30
2018-07-07T10:02:44.599Z,29.9
2018-07-07T10:03:34.919Z,29.8
2018-07-07T10:04:25.015Z,29.6
2018-07-07T10:05:15.134Z,29.5
2018-07-07T10:06:05.136Z,29.4
2018-07-07T10:06:55.182Z,29.3
2018-07-07T10:07:45.794Z,29.1
2018-07-07T10:08:35.316Z,28.9
2018-07-07T10:09:25.139Z,28.8
2018-07-07T10:10:15.656Z,28.6
2018-07-07T10:11:05.249Z,28.5
2018-07-07T10:11:55.603Z,28.4
2018-07-07T10:12:45.660Z,28.2
2018-07-07T10:13:36.214Z,28.1
2018-07-07T10:14:25.811Z,27.9
2018-07-07T10:15:15.561Z,27.8
2018-07-07T10:16:05.933Z,27.6
2018-07-07T10:16:55.988Z,27.5
2018-07-07T10:17:46.031Z,27.4
2018-07-07T10:18:36.156Z,27.2
2018-07-07T10:19:26.217Z,27.1
2018-07-07T10:20:15.963Z,26.9
2018-07-07T10:21:06.308Z,26.8
2018-07-07T10:21:56.355Z,26.7
2018-07-07T10:22:46.173Z,26.5
2018-07-07T10:23:36.236Z,26.4
2018-07-07T10:24:26.594Z,26.3
2018-07-07T10:25:16.359Z,26.1
2018-07-07T10:26:06.721Z,26
2018-07-07T10:26:56.771Z,25.9
2018-07-07T10:27:46.850Z,25.8
2018-07-07T10:28:36.927Z,25.6
2018-07-07T10:29:26.696Z,25.5
2018-07-07T10:30:17.041Z,25.4
2018-07-07T10:31:07.089Z,25.3
2018-07-07T10:31:57.149Z,25.3
2018-07-07T10:32:46.952Z,25.1
2018-07-07T10:33:37.314Z,25.1
2018-07-07T10:34:27.384Z,25
2018-07-07T10:35:17.433Z,24.9
2018-07-07T10:36:07.518Z,24.9
2018-07-07T10:36:56.718Z,24.8
2018-07-07T10:37:47.643Z,24.8
2018-07-07T10:38:37.686Z,24.7
2018-07-07T10:39:27.743Z,24.6
2018-07-07T10:40:17.528Z,24.6
2018-07-07T10:41:07.878Z,24.6
2018-07-07T10:41:57.698Z,24.6
2018-07-07T10:42:48.007Z,24.6
2018-07-07T10:43:38.075Z,24.6
2018-07-07T10:44:27.854Z,24.6
2018-07-07T10:45:18.204Z,24.6
2018-07-07T10:46:08.750Z,24.6
2018-07-07T10:46:58.346Z,24.6
2018-07-07T10:47:47.865Z,24.6
2018-07-07T10:48:38.484Z,24.6
2018-07-07T10:49:28.535Z,24.7
2018-07-07T10:50:18.601Z,24.7
2018-07-07T10:51:08.399Z,24.8
2018-07-07T10:51:58.728Z,24.8
2018-07-07T10:52:48.531Z,24.9
2018-07-07T10:53:38.879Z,24.9
2018-07-07T10:54:28.919Z,24.9
2018-07-07T10:55:18.997Z,25
2018-07-07T10:56:09.068Z,25.1
2018-07-07T10:56:58.838Z,25.1
2018-07-07T10:57:48.921Z,25.2
2018-07-07T10:58:39.254Z,25.3
2018-07-07T10:59:29.336Z,25.3
2018-07-07T11:00:19.395Z,25.4
2018-07-07T11:01:09.464Z,25.4
2018-07-07T11:01:59.061Z,25.5
2018-07-07T11:02:49.577Z,25.6
2018-07-07T11:03:39.378Z,25.6
2018-07-07T11:04:29.703Z,25.7
2018-07-07T11:05:19.768Z,25.8
2018-07-07T11:06:09.846Z,25.8
2018-07-07T11:06:59.906Z,25.9
2018-07-07T11:07:49.723Z,26.1
2018-07-07T11:08:39.775Z,26.1
2018-07-07T11:09:29.548Z,26.3
2018-07-07T11:10:20.190Z,26.4
2018-07-07T11:11:09.954Z,26.6
2018-07-07T11:12:00.600Z,26.7
2018-07-07T11:12:50.105Z,26.9
2018-07-07T11:13:40.159Z,27.1
2018-07-07T11:14:30.219Z,27.3
2018-07-07T11:15:20.279Z,27.5
2018-07-07T11:16:10.348Z,27.8
2018-07-07T11:17:00.696Z,28
2018-07-07T11:17:50.763Z,28.3
2018-07-07T11:18:40.831Z,28.6
2018-07-07T11:19:30.902Z,28.9
2018-07-07T11:20:20.972Z,29.1
2018-07-07T11:21:11.042Z,29.5
2018-07-07T11:22:01.118Z,29.8
2018-07-07T11:22:51.177Z,30.1
2018-07-07T11:23:40.688Z,30.4
2018-07-07T11:24:31.313Z,30.8
2018-07-07T11:25:21.349Z,31.1
2018-07-07T11:26:11.430Z,31.3
2018-07-07T11:27:01.214Z,31.6
2018-07-07T11:27:51.305Z,31.8
2018-07-07T11:28:41.620Z,32
2018-07-07T11:29:31.676Z,32.1
2018-07-07T11:30:21.493Z,32.3
2018-07-07T11:31:11.555Z,32.3
2018-07-07T11:32:01.893Z,32.4
2018-07-07T11:32:51.957Z,32.4
2018-07-07T11:33:42.028Z,32.4
2018-07-07T11:34:31.825Z,32.4
2018-07-07T11:35:22.136Z,32.3
2018-07-07T11:36:12.337Z,32.3
2018-07-07T11:37:02.579Z,32.2
2018-07-07T11:37:52.354Z,32.1
2018-07-07T11:38:42.115Z,32
2018-07-07T11:39:31.925Z,31.9
2018-07-07T11:40:22.550Z,31.8
2018-07-07T11:41:12.368Z,31.8
2018-07-07T11:42:02.706Z,31.7
2018-07-07T11:42:52.722Z,31.6
2018-07-07T11:43:42.525Z,31.5
2018-07-07T11:44:32.855Z,31.4
2018-07-07T11:45:22.360Z,31.3
2018-07-07T11:46:12.715Z,31.3
2018-07-07T11:47:03.080Z,31.1
2018-07-07T11:47:53.123Z,31.1
2018-07-07T11:48:43.204Z,30.9
2018-07-07T11:49:33.259Z,30.9
2018-07-07T11:50:23.350Z,30.8
2018-07-07T11:51:13.394Z,30.7
2018-07-07T11:52:03.183Z,30.7
2018-07-07T11:52:53.251Z,30.6
2018-07-07T11:53:43.334Z,30.6
2018-07-07T11:54:33.666Z,30.6
2018-07-07T11:55:23.450Z,30.7
2018-07-07T11:56:13.783Z,30.7
2018-07-07T11:57:03.869Z,30.8
2018-07-07T11:57:53.640Z,30.9
2018-07-07T11:58:43.985Z,31.1
2018-07-07T11:59:33.763Z,31.3
2018-07-07T12:00:24.120Z,31.4
2018-07-07T12:01:14.158Z,31.8
2018-07-07T12:02:04.243Z,32.1
2018-07-07T12:02:54.346Z,32.6
2018-07-07T12:03:44.386Z,33.3
2018-07-07T12:04:34.958Z,34.1
2018-07-07T12:05:24.526Z,35.2
2018-07-07T12:06:14.029Z,36.1
2018-07-07T12:07:04.636Z,36.9
2018-07-07T12:08:16.091Z,37.8
2018-07-07T12:08:44.505Z,38.6
2018-07-07T12:09:34.834Z,38.9
2018-07-07T12:10:24.902Z,39.3
2018-07-07T12:11:15.285Z,39.6
2018-07-07T12:12:05.040Z,39.9
2018-07-07T12:12:54.799Z,40.2
2018-07-07T12:13:44.924Z,40.4
2018-07-07T12:14:35.223Z,40.7
2018-07-07T12:15:25.287Z,40.8
2018-07-07T12:16:15.349Z,41
2018-07-07T12:17:04.854Z,41.1
2018-07-07T12:17:55.205Z,41.1
2018-07-07T12:18:44.719Z,41.2
2018-07-07T12:19:35.613Z,41.3
2018-07-07T12:20:25.691Z,41.1
2018-07-07T12:21:15.479Z,40.9
2018-07-07T12:22:05.827Z,40.6
2018-07-07T12:22:55.871Z,40.3
2018-07-07T12:23:45.941Z,39.9
2018-07-07T12:24:36.001Z,39.6
2018-07-07T12:25:26.068Z,39.2
2018-07-07T12:26:16.134Z,38.8
2018-07-07T12:27:06.207Z,38.5
2018-07-07T12:27:56.010Z,38.1
2018-07-07T12:28:46.341Z,37.8
2018-07-07T12:29:36.413Z,37.5
2018-07-07T12:30:26.484Z,37.2
2018-07-07T12:31:16.779Z,36.9
2018-07-07T12:32:06.599Z,36.6
2018-07-07T12:32:56.399Z,36.4
2018-07-07T12:33:46.799Z,36.2
2018-07-07T12:34:36.515Z,35.9
2018-07-07T12:35:26.879Z,35.8
2018-07-07T12:36:16.932Z,35.6
2018-07-07T12:37:06.728Z,35.3
2018-07-07T12:37:56.228Z,35.1
2018-07-07T12:38:46.896Z,34.9
2018-07-07T12:39:37.185Z,34.6
2018-07-07T12:40:27.485Z,34.4
2018-07-07T12:41:17.048Z,34.2
2018-07-07T12:42:07.403Z,34
2018-07-07T12:42:57.179Z,33.8
2018-07-07T12:43:46.963Z,33.6
2018-07-07T12:44:37.756Z,33.4
2018-07-07T12:45:27.646Z,33.3
2018-07-07T12:46:17.459Z,33.1
2018-07-07T12:47:07.795Z,32.9
2018-07-07T12:47:57.845Z,32.7
2018-07-07T12:48:47.902Z,32.5
2018-07-07T12:49:38.023Z,32.3
2018-07-07T12:50:28.037Z,32.2
2018-07-07T12:51:18.099Z,32.1
2018-07-07T12:52:08.101Z,31.9
2018-07-07T12:52:57.961Z,31.8
2018-07-07T12:53:48.019Z,31.6
2018-07-07T12:54:38.368Z,31.4
2018-07-07T12:55:28.148Z,31.3
2018-07-07T12:56:18.239Z,31.1
2018-07-07T12:57:08.568Z,31.1
2018-07-07T12:57:58.626Z,30.9
2018-07-07T12:58:48.688Z,30.8
2018-07-07T12:59:38.776Z,30.8
2018-07-07T13:00:28.829Z,30.7
2018-07-07T13:01:19.231Z,30.6
2018-07-07T13:02:08.949Z,30.6
2018-07-07T13:02:59.045Z,30.5
2018-07-07T13:03:49.109Z,30.4
2018-07-07T13:04:39.174Z,30.3
2018-07-07T13:05:28.963Z,30.3
2018-07-07T13:06:19.025Z,30.2
2018-07-07T13:07:09.686Z,30.1
2018-07-07T13:07:59.151Z,30.1
2018-07-07T13:08:49.491Z,30
2018-07-07T13:09:39.563Z,30
2018-07-07T13:10:29.626Z,29.9
2018-07-07T13:11:19.407Z,29.9
2018-07-07T13:12:09.770Z,29.8
2018-07-07T13:12:59.254Z,29.8
2018-07-07T13:13:49.888Z,29.8
2018-07-07T13:14:39.966Z,29.8
2018-07-07T13:15:29.760Z,29.7
2018-07-07T13:16:19.833Z,29.7
2018-07-07T13:17:09.876Z,29.7
2018-07-07T13:17:59.645Z,29.6
2018-07-07T13:18:49.998Z,29.6
2018-07-07T13:19:40.126Z,29.5
2018-07-07T13:20:30.131Z,29.4
2018-07-07T13:21:20.477Z,29.4
2018-07-07T13:22:10.553Z,29.3
2018-07-07T13:23:00.598Z,29.3
2018-07-07T13:23:50.392Z,29.3
2018-07-07T13:24:40.763Z,29.3
2018-07-07T13:25:30.792Z,29.2
2018-07-07T13:26:21.061Z,29.2
2018-07-07T13:27:10.656Z,29.2
2018-07-07T13:28:00.736Z,29.2
2018-07-07T13:28:51.067Z,29.2
2018-07-07T13:29:41.127Z,29.2
2018-07-07T13:30:30.903Z,29.2
2018-07-07T13:31:21.255Z,29.2
2018-07-07T13:32:11.337Z,29.2
2018-07-07T13:33:01.238Z,29.3
2018-07-07T13:33:51.181Z,29.3
2018-07-07T13:34:41.564Z,29.3
2018-07-07T13:35:31.297Z,29.3
2018-07-07T13:36:21.670Z,29.3
2018-07-07T13:37:11.710Z,29.3
2018-07-07T13:38:01.812Z,29.4
2018-07-07T13:38:51.880Z,29.4
2018-07-07T13:39:41.654Z,29.4
2018-07-07T13:40:31.980Z,29.5
2018-07-07T13:41:22.060Z,29.6
2018-07-07T13:42:11.581Z,29.6
2018-07-07T13:43:01.898Z,29.7
2018-07-07T13:43:51.709Z,29.8
2018-07-07T13:44:42.315Z,29.9
2018-07-07T13:45:32.122Z,30
2018-07-07T13:46:22.160Z,30.1
2018-07-07T13:47:12.545Z,30.2
2018-07-07T13:48:02.026Z,30.3
2018-07-07T13:48:52.634Z,30.4
2018-07-07T13:49:42.694Z,30.4
2018-07-07T13:50:32.762Z,30.6
2018-07-07T13:51:22.602Z,30.8
2018-07-07T13:52:12.913Z,30.9
2018-07-07T13:53:02.815Z,31
2018-07-07T13:53:52.763Z,31.2
2018-07-07T13:54:42.825Z,31.4
2018-07-07T13:55:33.153Z,31.7
2018-07-07T13:56:22.380Z,32
2018-07-07T13:57:12.822Z,32.3
2018-07-07T13:58:03.388Z,32.6
2018-07-07T13:58:53.132Z,33
2018-07-07T13:59:43.538Z,33.4
2018-07-07T14:00:33.544Z,33.8
2018-07-07T14:01:23.621Z,34.3
2018-07-07T14:02:13.852Z,34.9
2018-07-07T14:03:03.470Z,35.5
2018-07-07T14:03:53.810Z,36.1
2018-07-07T14:04:43.869Z,36.7
2018-07-07T14:05:33.946Z,37.2
2018-07-07T14:06:24.009Z,37.8
2018-07-07T14:07:14.097Z,38.3
2018-07-07T14:08:03.862Z,38.9
2018-07-07T14:08:54.198Z,39.6
2018-07-07T14:09:44.303Z,40.4
2018-07-07T14:10:34.067Z,41.2
2018-07-07T14:11:24.408Z,41.9
2018-07-07T14:12:14.472Z,42.8
2018-07-07T14:13:04.260Z,43.5
2018-07-07T14:13:54.594Z,45.2
2018-07-07T14:14:44.657Z,46.6
2018-07-07T14:15:34.725Z,46.1
2018-07-07T14:16:24.809Z,44.5
2018-07-07T14:17:15.355Z,41.7
2018-07-07T14:18:04.931Z,39.4
2018-07-07T14:18:54.725Z,38.4
2018-07-07T14:19:44.519Z,37.9
2018-07-07T14:20:35.157Z,37.9
2018-07-07T14:21:25.209Z,38.1
2018-07-07T14:22:15.283Z,38.4
2018-07-07T14:23:05.047Z,38.8
2018-07-07T14:23:55.407Z,39.4
2018-07-07T14:24:45.462Z,39.9
2018-07-07T14:25:35.536Z,40.4
2018-07-07T14:26:25.604Z,41.1
2018-07-07T14:27:15.662Z,41.7
2018-07-07T14:28:05.721Z,42.4
2018-07-07T14:28:55.792Z,42.9
2018-07-07T14:29:45.876Z,44.6
2018-07-07T14:30:35.927Z,45.4
2018-07-07T14:31:26.085Z,45.1
2018-07-07T14:32:15.780Z,44.6
2018-07-07T14:33:05.852Z,43.9
2018-07-07T14:33:56.172Z,43
2018-07-07T14:34:45.974Z,42.3
2018-07-07T14:35:36.304Z,42.2
2018-07-07T14:36:26.381Z,42.6
2018-07-07T14:37:16.179Z,43.1
2018-07-07T14:38:06.504Z,43.4
2018-07-07T14:38:56.570Z,43.6
2018-07-07T14:39:46.672Z,43.4
2018-07-07T14:40:36.704Z,43.3
2018-07-07T14:41:26.513Z,43.2
2018-07-07T14:42:16.859Z,43.2
2018-07-07T14:43:06.646Z,43.4
2018-07-07T14:43:56.973Z,43.5
2018-07-07T14:44:47.031Z,43.7
2018-07-07T14:45:37.133Z,43.8
2018-07-07T14:46:26.950Z,43.8
2018-07-07T14:47:16.980Z,43.8
2018-07-07T14:48:06.753Z,43.8
2018-07-07T14:48:57.424Z,43.9
2018-07-07T14:49:47.445Z,43.9
2018-07-07T14:50:37.526Z,44
2018-07-07T14:51:27.597Z,44.1
2018-07-07T14:52:17.740Z,44
2018-07-07T14:53:07.712Z,43.9
2018-07-07T14:53:57.485Z,43.9
2018-07-07T14:54:47.562Z,43.9
2018-07-07T14:55:37.627Z,43.9
2018-07-07T14:56:28.059Z,43.9
2018-07-07T14:57:17.632Z,43.9
2018-07-07T14:58:08.293Z,43.8
2018-07-07T14:58:57.898Z,43.8
2018-07-07T14:59:48.224Z,43.7
2018-07-07T15:00:38.297Z,43.6
2018-07-07T15:01:28.365Z,43.6
2018-07-07T15:02:18.430Z,43.4
2018-07-07T15:03:08.504Z,43.3
2018-07-07T15:03:58.564Z,43.1
2018-07-07T15:04:48.342Z,43
2018-07-07T15:05:38.697Z,42.9
2018-07-07T15:06:28.777Z,42.8
2018-07-07T15:07:18.822Z,42.8
2018-07-07T15:08:09.035Z,42.6
2018-07-07T15:08:58.685Z,42.6
2018-07-07T15:09:49.047Z,42.5
2018-07-07T15:10:39.071Z,42.4
2018-07-07T15:11:29.252Z,42.3
2018-07-07T15:12:18.654Z,42.2
2018-07-07T15:13:08.997Z,42.1
2018-07-07T15:13:59.092Z,42
2018-07-07T15:14:49.404Z,41.9
2018-07-07T15:15:39.676Z,41.6
2018-07-07T15:16:29.271Z,41.3
2018-07-07T15:17:18.762Z,41.1
2018-07-07T15:18:09.728Z,40.8
2018-07-07T15:18:59.731Z,40.6
2018-07-07T15:19:49.523Z,40.4
2018-07-07T15:20:39.880Z,40.3
2018-07-07T15:21:29.671Z,40.2
2018-07-07T15:22:20.018Z,40.1
2018-07-07T15:23:09.804Z,40.1
2018-07-07T15:24:00.138Z,40.2
2018-07-07T15:24:50.186Z,40.3
2018-07-07T15:25:40.280Z,40.4
2018-07-07T15:26:29.765Z,40.6
2018-07-07T15:27:20.398Z,40.7
2018-07-07T15:28:10.193Z,40.8
2018-07-07T15:29:00.538Z,40.9
2018-07-07T15:29:50.591Z,41
2018-07-07T15:30:40.670Z,41.1
2018-07-07T15:31:30.728Z,41.2
2018-07-07T15:32:20.795Z,41.3
2018-07-07T15:33:10.582Z,41.3
2018-07-07T15:34:00.934Z,41.4
2018-07-07T15:34:51.004Z,41.4
2018-07-07T15:35:41.069Z,41.3
2018-07-07T15:36:31.135Z,41.3
2018-07-07T15:37:21.179Z,41.3
2018-07-07T15:38:10.980Z,41.2
2018-07-07T15:39:01.049Z,41.2
2018-07-07T15:39:51.386Z,41.2
2018-07-07T15:40:41.461Z,41.2
2018-07-07T15:41:31.288Z,41.2
2018-07-07T15:42:21.013Z,41.2
2018-07-07T15:43:11.399Z,41.2
2018-07-07T15:44:01.432Z,41.3
2018-07-07T15:44:51.497Z,41.3
2018-07-07T15:45:41.299Z,41.2
2018-07-07T15:46:31.914Z,41.2
2018-07-07T15:47:21.984Z,41.1
2018-07-07T15:48:12.057Z,41.1
2018-07-07T15:49:02.104Z,41
2018-07-07T15:49:51.899Z,40.9
2018-07-07T15:50:42.248Z,40.8
2018-07-07T15:51:32.356Z,40.6
2018-07-07T15:52:22.384Z,40.4
2018-07-07T15:53:12.169Z,40.2
2018-07-07T15:54:02.242Z,39.9
2018-07-07T15:54:52.568Z,39.7
2018-07-07T15:55:42.073Z,39.4
2018-07-07T15:56:32.437Z,39.2
2018-07-07T15:57:23.158Z,38.9
2018-07-07T15:58:12.549Z,38.6
2018-07-07T15:59:02.898Z,38.4
2018-07-07T15:59:52.971Z,38.1
2018-07-07T16:00:43.039Z,37.9
2018-07-07T16:01:33.093Z,37.7
2018-07-07T16:02:23.191Z,37.4
2018-07-07T16:03:13.245Z,37.3
2018-07-07T16:04:03.345Z,37.1
2018-07-07T16:04:53.355Z,37
2018-07-07T16:05:43.148Z,36.9
2018-07-07T16:06:33.481Z,36.8
2018-07-07T16:07:23.270Z,36.6
2018-07-07T16:08:13.344Z,36.4
2018-07-07T16:09:03.733Z,36.2
2018-07-07T16:09:54.240Z,36.1
2018-07-07T16:10:43.873Z,35.9
2018-07-07T16:11:33.879Z,35.8
2018-07-07T16:12:23.963Z,35.6
2018-07-07T16:13:14.023Z,35.4
2018-07-07T16:14:03.812Z,35.3
2018-07-07T16:14:53.876Z,35.2
2018-07-07T16:15:44.205Z,35
2018-07-07T16:16:34.263Z,34.9
2018-07-07T16:17:24.371Z,34.8
2018-07-07T16:18:14.408Z,34.6
2018-07-07T16:19:04.185Z,34.4
2018-07-07T16:19:54.523Z,34.3
2018-07-07T16:20:44.314Z,34
2018-07-07T16:21:34.119Z,33.8
2018-07-07T16:22:24.453Z,33.6
2018-07-07T16:23:14.793Z,33.3
2018-07-07T16:24:04.865Z,33.1
2018-07-07T16:24:54.947Z,32.8
2018-07-07T16:25:44.719Z,32.6
2018-07-07T16:26:35.052Z,32.4
2018-07-07T16:27:25.130Z,32.2
2018-07-07T16:28:14.901Z,32
2018-07-07T16:29:04.978Z,31.8
2018-07-07T16:29:55.360Z,31.6
2018-07-07T16:30:45.399Z,31.4
2018-07-07T16:31:35.169Z,31.3
2018-07-07T16:32:25.531Z,31.1
2018-07-07T16:33:15.605Z,30.9
2018-07-07T16:34:05.657Z,30.8
2018-07-07T16:34:55.440Z,30.6
2018-07-07T16:35:45.783Z,30.4
2018-07-07T16:36:35.858Z,30.3
2018-07-07T16:37:25.901Z,30.1
2018-07-07T16:38:15.418Z,29.9
2018-07-07T16:39:06.051Z,29.8
2018-07-07T16:39:56.152Z,29.6
2018-07-07T16:40:46.159Z,29.4
2018-07-07T16:41:35.960Z,29.3
2018-07-07T16:42:26.036Z,29.2
2018-07-07T16:43:16.345Z,29.1
2018-07-07T16:44:06.143Z,28.9
2018-07-07T16:44:56.480Z,28.8
2018-07-07T16:45:46.572Z,28.6
2018-07-07T16:46:36.602Z,28.5
2018-07-07T16:47:26.714Z,28.3
2018-07-07T16:48:16.463Z,28.3
2018-07-07T16:49:06.807Z,28.1
2018-07-07T16:49:56.885Z,28
2018-07-07T16:50:46.677Z,27.9
2018-07-07T16:51:36.745Z,27.8
2018-07-07T16:52:27.094Z,27.6
2018-07-07T16:53:16.593Z,27.5
2018-07-07T16:54:07.208Z,27.4
2018-07-07T16:54:56.721Z,27.3
2018-07-07T16:55:47.055Z,27.2
2018-07-07T16:56:37.130Z,27.1
2018-07-07T16:57:27.468Z,27
2018-07-07T16:58:17.272Z,26.9
2018-07-07T16:59:07.312Z,26.8
2018-07-07T16:59:57.694Z,26.6
2018-07-07T17:00:47.489Z,26.5
2018-07-07T17:01:37.814Z,26.4
2018-07-07T17:02:27.594Z,26.3
2018-07-07T17:03:17.927Z,26.1
2018-07-07T17:04:08.000Z,26
2018-07-07T17:04:58.070Z,25.9
2018-07-07T17:05:48.219Z,25.7
2018-07-07T17:06:38.183Z,25.6
2018-07-07T17:07:28.014Z,25.4
2018-07-07T17:08:18.326Z,25.3
2018-07-07T17:09:08.111Z,25.1
2018-07-07T17:09:58.184Z,24.9
2018-07-07T17:10:48.515Z,24.8
2018-07-07T17:11:38.498Z,24.6
2018-07-07T17:12:28.668Z,24.4
2018-07-07T17:13:18.148Z,24.3
2018-07-07T17:14:08.506Z,24.2
2018-07-07T17:14:58.568Z,24.1
2018-07-07T17:15:48.947Z,23.9
2018-07-07T17:16:38.398Z,23.8
2018-07-07T17:17:28.772Z,23.7
2018-07-07T17:18:19.289Z,23.6
2018-07-07T17:19:09.153Z,23.5
2018-07-07T17:19:59.233Z,23.4
2018-07-07T17:20:49.321Z,23.3
2018-07-07T17:21:39.379Z,23.3
2018-07-07T17:22:29.147Z,23.2
2018-07-07T17:23:19.501Z,23.1
2018-07-07T17:24:09.374Z,23.1
2018-07-07T17:24:59.621Z,23
2018-07-07T17:25:49.459Z,22.9
2018-07-07T17:26:39.750Z,22.9
2018-07-07T17:27:29.830Z,22.8
2018-07-07T17:28:19.449Z,22.8
2018-07-07T17:29:09.961Z,22.8
2018-07-07T17:29:59.743Z,22.6
2018-07-07T17:30:49.811Z,22.6
2018-07-07T17:31:39.891Z,22.4
2018-07-07T17:32:29.942Z,22.4
2018-07-07T17:33:20.312Z,22.3
2018-07-07T17:34:10.368Z,22.2
2018-07-07T17:35:00.145Z,22.1
2018-07-07T17:35:50.573Z,22.1
2018-07-07T17:36:40.537Z,22
2018-07-07T17:37:30.328Z,22
2018-07-07T17:38:20.410Z,21.9
2018-07-07T17:39:10.743Z,21.9
2018-07-07T17:40:00.588Z,21.8
2018-07-07T17:40:50.601Z,21.8
2018-07-07T17:41:40.970Z,21.7
2018-07-07T17:42:31.039Z,21.6
2018-07-07T17:43:20.797Z,21.6
2018-07-07T17:44:10.872Z,21.6
2018-07-07T17:45:01.240Z,21.5
2018-07-07T17:45:51.285Z,21.4
2018-07-07T17:46:41.329Z,21.4
2018-07-07T17:47:31.405Z,21.4
2018-07-07T17:48:21.202Z,21.3